Time;durP1;ratioP1;P1;durP2;ratioP2;P2;SDS_P1;SDS_P2;PMS_P1;PMS_P2;Temp;Humidity;BMP_temperature;BMP_pressure;BME280_temperature;BME280_humidity;BME280_pressure;Samples;Min_cycle;Max_cycle;Signal;HPM_P1;HPM_P2
2023/12/17 00:01:28;;;;;;;26.65;19.88;;;8.40;99.90;;;;;;6310279;22;20604;-87
2023/12/17 00:03:54;;;;;;;27.42;19.38;;;8.50;99.90;;;;;;6282750;22;20209;-89
2023/12/17 00:06:20;;;;;;;26.85;19.15;;;8.50;99.90;;;;;;6310205;22;20144;-88
2023/12/17 00:08:48;;;;;;;31.00;19.58;;;8.50;99.90;;;;;;6283237;22;20160;-88
2023/12/17 00:11:15;;;;;;;30.98;20.05;;;8.50;99.90;;;;;;6282821;22;20148;-88
2023/12/17 00:13:41;;;;;;;24.80;17.55;;;8.50;99.90;;;;;;6282983;22;20195;-88
2023/12/17 00:16:08;;;;;;;23.33;16.98;;;8.50;99.90;;;;;;6282816;22;20156;-87
2023/12/17 00:18:33;;;;;;;25.98;18.48;;;8.50;99.90;;;;;;6282093;22;20208;-91
2023/12/17 00:20:59;;;;;;;27.38;18.08;;;8.60;99.90;;;;;;6282614;22;20243;-87
2023/12/17 00:23:25;;;;;;;28.23;18.92;;;8.50;99.90;;;;;;6282791;22;20158;-89
2023/12/17 00:28:26;;;;;;;24.10;17.77;;;8.60;99.90;;;;;;6305513;22;20256;-85
2023/12/17 00:30:52;;;;;;;23.40;17.23;;;8.50;99.90;;;;;;6314199;22;20155;-84
2023/12/17 00:33:18;;;;;;;28.05;17.70;;;8.50;99.90;;;;;;6313980;22;20186;-85
2023/12/17 00:35:43;;;;;;;25.20;17.98;;;8.50;99.90;;;;;;6341792;22;20562;-87
2023/12/17 00:38:12;;;;;;;25.67;18.45;;;8.50;99.90;;;;;;6313977;22;20159;-85
2023/12/17 00:40:38;;;;;;;26.27;18.20;;;8.50;99.90;;;;;;6314083;22;20151;-88
2023/12/17 00:43:04;;;;;;;28.65;18.15;;;8.50;99.90;;;;;;6314091;22;20324;-86
2023/12/17 00:45:29;;;;;;;26.77;18.00;;;8.50;99.90;;;;;;6314545;22;20152;-84
2023/12/17 00:47:55;;;;;;;27.15;17.77;;;8.50;99.90;;;;;;6341625;22;20201;-85
2023/12/17 00:50:21;;;;;;;25.00;17.45;;;8.50;99.90;;;;;;6314741;22;20158;-85
2023/12/17 00:52:47;;;;;;;26.98;19.33;;;8.50;99.90;;;;;;6341865;22;20139;-85
2023/12/17 00:55:12;;;;;;;23.40;17.67;;;8.60;99.90;;;;;;6314837;22;20170;-85
2023/12/17 00:57:38;;;;;;;24.10;17.35;;;8.50;99.90;;;;;;6313426;22;20151;-90
2023/12/17 01:00:04;;;;;;;24.70;18.27;;;8.50;99.90;;;;;;6314137;22;20159;-85
2023/12/17 01:02:30;;;;;;;25.17;17.88;;;8.60;99.90;;;;;;6314401;22;20155;-84
2023/12/17 01:04:56;;;;;;;21.13;16.17;;;8.60;99.90;;;;;;6314542;22;20427;-84
2023/12/17 01:07:22;;;;;;;25.00;17.60;;;8.60;99.90;;;;;;6314032;22;20151;-86
2023/12/17 01:09:48;;;;;;;23.95;17.33;;;8.60;99.90;;;;;;6341689;22;20562;-86
2023/12/17 01:12:14;;;;;;;24.95;17.80;;;8.60;99.90;;;;;;6314012;22;20260;-85
2023/12/17 01:14:40;;;;;;;25.52;17.30;;;8.60;99.90;;;;;;6313853;22;20191;-85
2023/12/17 01:17:07;;;;;;;23.10;16.88;;;8.60;99.90;;;;;;6313902;22;20155;-84
2023/12/17 01:19:40;;;;;;;26.65;18.10;;;8.60;99.90;;;;;;6314058;22;20219;-86
2023/12/17 01:22:06;;;;;;;28.83;18.10;;;8.60;99.90;;;;;;6314196;22;20285;-84
2023/12/17 01:24:32;;;;;;;23.20;16.58;;;8.60;99.90;;;;;;6314110;22;20186;-85
2023/12/17 01:26:59;;;;;;;27.40;18.00;;;8.60;99.90;;;;;;6313353;22;20217;-84
2023/12/17 01:29:30;;;;;;;22.38;16.80;;;8.60;99.90;;;;;;6313986;22;20155;-86
2023/12/17 01:31:57;;;;;;;24.70;17.48;;;8.60;99.90;;;;;;6314265;22;20193;-84
2023/12/17 01:34:24;;;;;;;26.23;17.90;;;8.60;99.90;;;;;;6313839;22;20195;-85
2023/12/17 01:36:50;;;;;;;21.88;16.35;;;8.60;99.90;;;;;;6313772;22;20468;-83
2023/12/17 01:39:17;;;;;;;22.37;17.13;;;8.70;99.90;;;;;;6341658;22;20158;-82
2023/12/17 01:41:44;;;;;;;22.00;16.20;;;8.70;99.90;;;;;;6314467;22;20144;-85
2023/12/17 01:44:11;;;;;;;23.17;15.27;;;8.70;99.90;;;;;;6313412;22;20155;-85
2023/12/17 01:46:39;;;;;;;25.40;16.38;;;8.70;99.90;;;;;;6313496;22;20158;-84
2023/12/17 01:49:06;;;;;;;23.08;15.45;;;8.80;99.90;;;;;;6313388;22;20163;-85
2023/12/17 01:51:32;;;;;;;21.15;16.05;;;8.80;99.90;;;;;;6313905;22;20155;-85
2023/12/17 01:54:00;;;;;;;19.13;15.30;;;8.70;99.90;;;;;;6313595;22;20201;-84
2023/12/17 01:56:26;;;;;;;21.17;15.77;;;8.70;99.90;;;;;;6313552;22;20162;-85
2023/12/17 01:58:53;;;;;;;22.58;15.70;;;8.70;99.90;;;;;;6313383;22;20159;-85
2023/12/17 02:01:19;;;;;;;20.00;14.50;;;8.70;99.90;;;;;;6313904;22;20158;-86
2023/12/17 02:03:45;;;;;;;21.08;14.75;;;8.70;99.90;;;;;;6341240;22;20461;-86
2023/12/17 02:06:11;;;;;;;17.60;13.60;;;8.70;99.90;;;;;;6313621;22;20159;-84
2023/12/17 02:08:36;;;;;;;19.73;13.60;;;8.80;99.90;;;;;;6313795;22;20461;-86
2023/12/17 02:11:02;;;;;;;18.43;13.77;;;8.70;99.90;;;;;;6313588;22;20194;-84
2023/12/17 02:13:28;;;;;;;19.40;14.67;;;8.70;99.90;;;;;;6313319;22;20593;-86
2023/12/17 02:15:54;;;;;;;19.80;14.57;;;8.70;99.90;;;;;;6341490;22;20155;-85
2023/12/17 02:18:20;;;;;;;19.02;14.07;;;8.70;99.90;;;;;;6313769;22;20209;-86
2023/12/17 02:20:51;;;;;;;23.92;15.02;;;8.70;99.90;;;;;;6314012;22;20163;-84
2023/12/17 02:23:17;;;;;;;18.52;13.48;;;8.60;99.90;;;;;;6313880;22;20147;-83
2023/12/17 02:25:43;;;;;;;18.98;14.10;;;8.70;99.90;;;;;;6313537;22;20158;-84
2023/12/17 02:28:09;;;;;;;21.52;13.93;;;8.70;99.90;;;;;;6307816;22;20629;-85
2023/12/17 02:30:43;;;;;;;18.60;13.88;;;8.60;99.90;;;;;;6308443;22;20155;-85
2023/12/17 02:33:08;;;;;;;18.13;13.40;;;8.60;99.90;;;;;;6308200;22;20180;-86
2023/12/17 02:35:34;;;;;;;21.55;14.63;;;8.70;99.90;;;;;;6308337;22;20159;-85
2023/12/17 02:38:00;;;;;;;20.17;14.18;;;8.70;99.90;;;;;;6308202;22;20167;-85
2023/12/17 02:40:27;;;;;;;18.33;13.65;;;8.60;99.90;;;;;;6308157;22;20159;-85
2023/12/17 02:42:52;;;;;;;17.40;13.43;;;8.60;99.90;;;;;;6308135;22;20147;-84
2023/12/17 02:45:18;;;;;;;19.48;14.15;;;8.60;99.90;;;;;;6308039;22;20163;-85
2023/12/17 02:47:44;;;;;;;19.00;13.88;;;8.60;99.90;;;;;;6307551;22;20156;-85
2023/12/17 02:50:10;;;;;;;17.38;13.15;;;8.60;99.90;;;;;;6308643;22;20163;-85
2023/12/17 02:52:36;;;;;;;19.23;13.30;;;8.60;99.90;;;;;;6307750;22;20148;-84
2023/12/17 02:55:02;;;;;;;17.73;13.75;;;8.60;99.90;;;;;;6308287;22;20610;-85
2023/12/17 02:57:28;;;;;;;17.13;13.38;;;8.60;99.90;;;;;;6307673;22;20158;-86
2023/12/17 02:59:55;;;;;;;18.60;13.18;;;8.60;99.90;;;;;;6308168;22;20155;-86
2023/12/17 03:02:20;;;;;;;18.67;14.05;;;8.70;99.90;;;;;;6308175;22;20197;-86
2023/12/17 03:04:47;;;;;;;18.98;13.63;;;8.60;99.90;;;;;;6308157;22;20155;-85
2023/12/17 03:07:13;;;;;;;16.88;13.57;;;8.60;99.90;;;;;;6307661;22;20156;-83
2023/12/17 03:09:39;;;;;;;19.10;12.82;;;8.60;99.90;;;;;;6307946;22;20212;-86
2023/12/17 03:12:05;;;;;;;18.45;12.85;;;8.60;99.90;;;;;;6307588;22;20451;-84
2023/12/17 03:14:33;;;;;;;14.55;11.85;;;8.60;99.90;;;;;;6307688;22;20192;-84
2023/12/17 03:17:00;;;;;;;16.75;12.43;;;8.60;99.90;;;;;;6307622;22;20190;-85
2023/12/17 03:19:25;;;;;;;18.70;13.70;;;8.60;99.90;;;;;;6307989;22;20464;-86
2023/12/17 03:21:51;;;;;;;18.42;12.70;;;8.60;99.90;;;;;;6306906;22;20151;-85
2023/12/17 03:24:17;;;;;;;17.75;12.23;;;8.60;99.90;;;;;;6307434;22;20186;-84
2023/12/17 03:26:43;;;;;;;14.30;11.35;;;8.50;99.90;;;;;;6310385;22;20148;-84
2023/12/17 03:29:08;;;;;;;17.53;12.63;;;8.50;99.90;;;;;;6312959;22;20170;-85
2023/12/17 03:31:34;;;;;;;17.52;12.13;;;8.50;99.90;;;;;;6313258;22;20522;-86
2023/12/17 03:34:01;;;;;;;16.80;11.98;;;8.50;99.90;;;;;;6313239;22;20221;-84
2023/12/17 03:36:27;;;;;;;16.80;11.68;;;8.50;99.90;;;;;;6340624;22;20577;-84
2023/12/17 03:38:52;;;;;;;17.90;11.90;;;8.50;99.90;;;;;;6313134;22;20196;-84
2023/12/17 03:41:28;;;;;;;15.13;11.35;;;8.60;99.90;;;;;;6340752;22;20178;-86
2023/12/17 03:43:56;;;;;;;15.97;11.07;;;8.60;99.90;;;;;;6312168;22;20154;-86
2023/12/17 03:46:24;;;;;;;16.60;11.50;;;8.50;99.90;;;;;;6312625;22;20205;-84
2023/12/17 03:48:50;;;;;;;15.63;11.18;;;8.50;99.90;;;;;;6313025;22;20460;-83
2023/12/17 03:51:16;;;;;;;14.05;11.35;;;8.50;99.90;;;;;;6312612;22;20178;-86
2023/12/17 03:53:42;;;;;;;15.23;10.75;;;8.50;99.90;;;;;;6312582;22;20190;-86
2023/12/17 03:56:09;;;;;;;15.98;11.32;;;8.50;99.90;;;;;;6312532;22;20155;-84
2023/12/17 03:58:36;;;;;;;13.00;10.90;;;8.50;99.90;;;;;;6312462;22;20251;-85
2023/12/17 04:01:02;;;;;;;19.52;11.05;;;8.50;99.90;;;;;;6312806;22;20151;-86
2023/12/17 04:03:29;;;;;;;13.88;10.23;;;8.50;99.90;;;;;;6312599;22;20234;-85
2023/12/17 04:05:56;;;;;;;15.63;10.38;;;8.50;99.90;;;;;;6312686;22;20163;-86
2023/12/17 04:08:21;;;;;;;13.80;9.95;;;8.60;99.90;;;;;;6312881;22;20152;-86
2023/12/17 04:10:47;;;;;;;15.63;10.20;;;8.50;99.90;;;;;;6312949;22;20204;-87
2023/12/17 04:13:13;;;;;;;13.27;10.60;;;8.50;99.90;;;;;;6314302;22;20183;-89
2023/12/17 04:15:39;;;;;;;14.60;10.55;;;8.60;99.90;;;;;;6314841;22;20159;-86
2023/12/17 04:18:04;;;;;;;16.92;10.00;;;8.60;99.90;;;;;;6314786;22;20160;-85
2023/12/17 04:20:31;;;;;;;12.10;9.70;;;8.60;99.90;;;;;;6342375;22;20154;-86
2023/12/17 04:22:57;;;;;;;13.13;9.75;;;8.50;99.90;;;;;;6342428;22;20150;-91
2023/12/17 04:25:25;;;;;;;14.27;10.23;;;8.50;99.90;;;;;;6342217;22;20179;-88
2023/12/17 04:27:51;;;;;;;13.77;9.75;;;8.50;99.90;;;;;;6309256;22;20219;-92
2023/12/17 04:30:17;;;;;;;12.27;9.30;;;8.50;99.90;;;;;;6310005;22;20156;-90
2023/12/17 04:32:44;;;;;;;13.68;9.30;;;8.50;99.90;;;;;;6310068;22;20642;-89
2023/12/17 04:35:10;;;;;;;11.23;8.73;;;8.50;99.90;;;;;;6310079;22;20191;-89
2023/12/17 04:37:36;;;;;;;11.23;8.98;;;8.50;99.90;;;;;;6309680;22;20159;-85
2023/12/17 04:40:02;;;;;;;12.75;8.93;;;8.50;99.90;;;;;;6309830;22;20163;-90
2023/12/17 04:42:40;;;;;;;12.70;9.48;;;8.60;99.90;;;;;;6309358;22;20156;-87
2023/12/17 04:45:07;;;;;;;12.85;8.80;;;8.50;99.90;;;;;;6309801;22;20152;-90
2023/12/17 04:47:33;;;;;;;10.25;8.27;;;8.60;99.90;;;;;;6309137;22;20202;-87
2023/12/17 04:50:01;;;;;;;10.53;8.37;;;8.50;99.90;;;;;;6310798;22;20144;-87
2023/12/17 04:52:30;;;;;;;12.48;9.15;;;8.50;99.90;;;;;;6308716;22;20313;-89
2023/12/17 04:54:55;;;;;;;10.53;8.93;;;8.50;99.90;;;;;;6310539;22;20241;-88
2023/12/17 04:57:21;;;;;;;11.00;8.80;;;8.50;99.90;;;;;;6309440;22;20183;-86
2023/12/17 04:59:47;;;;;;;12.20;8.65;;;8.50;99.90;;;;;;6309014;22;20159;-86
2023/12/17 05:02:14;;;;;;;13.27;8.55;;;8.50;99.90;;;;;;6310899;22;20187;-91
2023/12/17 05:04:39;;;;;;;14.43;8.37;;;8.50;99.90;;;;;;6309639;22;20148;-87
2023/12/17 05:07:05;;;;;;;9.85;8.27;;;8.50;99.90;;;;;;6309563;22;20167;-91
2023/12/17 05:09:31;;;;;;;10.48;8.50;;;8.50;99.90;;;;;;6309768;22;20177;-91
2023/12/17 05:12:02;;;;;;;11.40;8.27;;;8.50;99.90;;;;;;6309898;22;20245;-87
2023/12/17 05:14:28;;;;;;;10.75;8.90;;;8.50;99.90;;;;;;6310426;22;20184;-88
2023/12/17 05:16:53;;;;;;;10.50;8.40;;;8.50;99.90;;;;;;6308879;22;20201;-85
2023/12/17 05:19:19;;;;;;;11.30;8.43;;;8.50;99.90;;;;;;6309211;22;20163;-89
2023/12/17 05:21:46;;;;;;;11.48;8.40;;;8.50;99.90;;;;;;6309147;22;20218;-85
2023/12/17 05:24:12;;;;;;;11.20;8.60;;;8.50;99.90;;;;;;6308489;22;20163;-87
2023/12/17 05:26:38;;;;;;;8.80;7.82;;;8.50;99.90;;;;;;6309101;22;20160;-87
2023/12/17 05:29:03;;;;;;;10.00;8.43;;;8.50;99.90;;;;;;6313548;22;20590;-87
2023/12/17 05:31:34;;;;;;;9.20;8.20;;;8.50;99.90;;;;;;6314191;22;20148;-90
2023/12/17 05:34:00;;;;;;;10.27;8.47;;;8.50;99.90;;;;;;6314179;22;20179;-89
2023/12/17 05:36:26;;;;;;;8.68;7.25;;;8.50;99.90;;;;;;6313823;22;20209;-87
2023/12/17 05:38:51;;;;;;;10.77;8.40;;;8.60;99.90;;;;;;6313619;22;20457;-87
2023/12/17 05:41:18;;;;;;;9.43;7.88;;;8.60;99.90;;;;;;6314051;22;20159;-86
2023/12/17 05:43:44;;;;;;;10.73;8.07;;;8.50;99.90;;;;;;6313855;22;20143;-88
2023/12/17 05:46:10;;;;;;;11.73;7.97;;;8.60;99.90;;;;;;6313889;22;20166;-86
2023/12/17 05:48:35;;;;;;;10.88;8.65;;;8.60;99.90;;;;;;6314036;22;20174;-85
2023/12/17 05:51:01;;;;;;;10.38;8.63;;;8.50;99.90;;;;;;6314542;22;20520;-87
2023/12/17 05:53:27;;;;;;;11.82;8.70;;;8.60;99.90;;;;;;6314104;22;20179;-87
2023/12/17 05:55:53;;;;;;;9.33;8.10;;;8.60;99.90;;;;;;6314271;22;20189;-87
2023/12/17 05:58:19;;;;;;;11.15;8.13;;;8.60;99.90;;;;;;6313648;22;20614;-90
2023/12/17 06:00:46;;;;;;;9.52;8.13;;;8.60;99.90;;;;;;6314258;22;20179;-87
2023/12/17 06:03:12;;;;;;;11.75;8.00;;;8.60;99.90;;;;;;6341695;22;20213;-88
2023/12/17 06:05:37;;;;;;;9.68;8.23;;;8.50;99.90;;;;;;6314051;22;20195;-86
2023/12/17 06:08:03;;;;;;;10.07;8.65;;;8.50;99.90;;;;;;6341412;22;20149;-89
2023/12/17 06:10:29;;;;;;;11.90;8.35;;;8.50;99.90;;;;;;6313847;22;20159;-87
2023/12/17 06:12:56;;;;;;;9.82;8.38;;;8.50;99.90;;;;;;6341097;22;20285;-87
2023/12/17 06:15:22;;;;;;;9.60;7.85;;;8.50;99.90;;;;;;6313781;22;20160;-87
2023/12/17 06:17:48;;;;;;;8.25;7.15;;;8.60;99.90;;;;;;6313506;22;20158;-87
2023/12/17 06:20:13;;;;;;;11.55;8.27;;;8.60;99.90;;;;;;6313709;22;20206;-87
2023/12/17 06:22:50;;;;;;;10.82;7.85;;;8.60;99.90;;;;;;6313686;22;20159;-89
2023/12/17 06:25:16;;;;;;;10.43;7.75;;;8.50;99.90;;;;;;6313741;22;20237;-87
2023/12/17 06:27:42;;;;;;;10.30;8.15;;;8.50;99.90;;;;;;6313093;22;20219;-86
2023/12/17 06:30:08;;;;;;;9.80;8.30;;;8.60;99.90;;;;;;6313868;22;20159;-86
2023/12/17 06:32:36;;;;;;;11.77;7.72;;;8.50;99.90;;;;;;6313621;22;20152;-90
2023/12/17 06:35:02;;;;;;;11.98;8.43;;;8.50;99.90;;;;;;6313477;22;20191;-87
2023/12/17 06:37:28;;;;;;;11.23;8.38;;;8.50;99.90;;;;;;6313472;22;20158;-87
2023/12/17 06:39:54;;;;;;;9.43;8.13;;;8.50;99.90;;;;;;6313729;22;20163;-86
2023/12/17 06:42:34;;;;;;;12.00;8.55;;;8.50;99.90;;;;;;6313861;22;20151;-86
2023/12/17 06:45:01;;;;;;;8.85;7.88;;;8.50;99.90;;;;;;6313676;22;20158;-88
2023/12/17 06:47:26;;;;;;;11.70;8.10;;;8.50;99.90;;;;;;6313179;22;20300;-89
2023/12/17 06:49:53;;;;;;;11.13;7.95;;;8.50;99.90;;;;;;6313787;22;20545;-88
2023/12/17 06:52:20;;;;;;;10.48;8.27;;;8.50;99.90;;;;;;6313615;22;20155;-88
2023/12/17 06:54:46;;;;;;;11.93;8.57;;;8.50;99.90;;;;;;6313295;22;20187;-87
2023/12/17 06:57:12;;;;;;;9.85;8.15;;;8.50;99.90;;;;;;6340560;22;20155;-88
2023/12/17 06:59:37;;;;;;;10.07;8.38;;;8.50;99.90;;;;;;6313484;22;20159;-87
2023/12/17 07:02:03;;;;;;;12.18;8.27;;;8.50;99.90;;;;;;6313476;22;20150;-87
2023/12/17 07:04:29;;;;;;;10.88;8.95;;;8.50;99.90;;;;;;6313297;22;20155;-87
2023/12/17 07:06:55;;;;;;;8.82;7.40;;;8.60;99.90;;;;;;6313505;22;20183;-87
2023/12/17 07:09:20;;;;;;;9.88;8.00;;;8.60;99.90;;;;;;6313302;22;20162;-86
2023/12/17 07:11:46;;;;;;;12.57;8.93;;;8.60;99.90;;;;;;6313338;22;20224;-87
2023/12/17 07:14:12;;;;;;;10.05;8.25;;;8.60;99.90;;;;;;6312848;22;20190;-87
2023/12/17 07:16:38;;;;;;;11.27;9.53;;;8.50;99.90;;;;;;6313157;22;20151;-87
2023/12/17 07:19:03;;;;;;;10.75;8.27;;;8.60;99.90;;;;;;6313060;22;20454;-87
2023/12/17 07:21:29;;;;;;;9.90;8.35;;;8.50;99.90;;;;;;6312998;22;20217;-86
2023/12/17 07:23:56;;;;;;;12.27;9.63;;;8.50;99.90;;;;;;6313318;22;20154;-88
2023/12/17 07:26:22;;;;;;;9.77;8.50;;;8.50;99.90;;;;;;6313220;22;20155;-86
2023/12/17 07:28:47;;;;;;;10.50;8.88;;;8.50;99.90;;;;;;6307427;22;20230;-89
2023/12/17 07:31:13;;;;;;;13.15;9.50;;;8.60;99.90;;;;;;6308150;22;20504;-88
2023/12/17 07:33:41;;;;;;;13.00;9.73;;;8.60;99.90;;;;;;6308896;22;20190;-86
2023/12/17 07:36:07;;;;;;;12.10;9.07;;;8.60;99.90;;;;;;6308019;22;20155;-87
2023/12/17 07:38:33;;;;;;;12.57;9.85;;;8.60;99.90;;;;;;6308070;22;20187;-86
2023/12/17 07:40:59;;;;;;;11.27;8.88;;;8.60;99.90;;;;;;6308194;22;20172;-86
2023/12/17 07:43:28;;;;;;;11.93;9.35;;;8.60;99.90;;;;;;6305966;22;20181;-87
2023/12/17 07:45:54;;;;;;;10.85;8.82;;;8.60;99.90;;;;;;6307397;22;20156;-87
2023/12/17 07:48:20;;;;;;;10.90;9.00;;;8.60;99.90;;;;;;6308717;22;20195;-85
2023/12/17 07:50:46;;;;;;;10.82;8.95;;;8.60;99.90;;;;;;6309763;22;20182;-86
2023/12/17 07:53:12;;;;;;;14.23;9.63;;;8.60;99.90;;;;;;6309574;22;20163;-85
2023/12/17 07:55:39;;;;;;;13.82;9.63;;;8.60;99.90;;;;;;6309539;22;20163;-87
2023/12/17 07:58:04;;;;;;;11.10;8.88;;;8.60;99.90;;;;;;6308700;22;20155;-85
2023/12/17 08:00:30;;;;;;;11.23;9.30;;;8.60;99.90;;;;;;6308983;22;20585;-87
2023/12/17 08:02:56;;;;;;;11.57;9.27;;;8.60;99.90;;;;;;6310975;22;20143;-85
2023/12/17 08:05:22;;;;;;;11.18;8.93;;;8.60;99.90;;;;;;6309609;22;20507;-86
2023/12/17 08:07:47;;;;;;;11.10;9.13;;;8.60;99.90;;;;;;6309479;22;20581;-86
2023/12/17 08:10:13;;;;;;;12.00;9.77;;;8.60;99.90;;;;;;6309892;22;20195;-86
2023/12/17 08:12:39;;;;;;;12.35;9.00;;;8.60;99.90;;;;;;6308327;22;20595;-86
2023/12/17 08:15:05;;;;;;;11.20;8.60;;;8.70;99.90;;;;;;6309080;22;20196;-87
2023/12/17 08:17:31;;;;;;;12.20;8.73;;;8.60;99.90;;;;;;6309493;22;20183;-86
2023/12/17 08:19:57;;;;;;;11.40;9.30;;;8.60;99.90;;;;;;6309364;22;20211;-87
2023/12/17 08:22:23;;;;;;;10.32;8.95;;;8.70;99.90;;;;;;6309538;22;20166;-87
2023/12/17 08:24:50;;;;;;;13.00;10.20;;;8.70;99.90;;;;;;6308895;22;20156;-87
2023/12/17 08:27:16;;;;;;;11.75;9.82;;;8.70;99.90;;;;;;6308074;22;20196;-85
2023/12/17 08:29:47;;;;;;;11.75;9.75;;;8.70;99.90;;;;;;6308731;22;20844;-86
2023/12/17 08:32:14;;;;;;;13.30;10.35;;;8.70;99.90;;;;;;6309284;22;20164;-87
2023/12/17 08:34:41;;;;;;;14.07;10.43;;;8.70;99.90;;;;;;6309221;22;20188;-87
2023/12/17 08:37:07;;;;;;;12.35;10.02;;;8.70;99.90;;;;;;6310855;22;20140;-86
2023/12/17 08:39:33;;;;;;;12.00;9.90;;;8.70;99.90;;;;;;6309313;22;20235;-87
2023/12/17 08:41:59;;;;;;;11.88;10.07;;;8.80;99.90;;;;;;6309796;22;20226;-89
2023/12/17 08:44:25;;;;;;;14.38;10.60;;;8.70;99.90;;;;;;6309239;22;20167;-88
2023/12/17 08:46:51;;;;;;;12.40;10.43;;;8.70;99.90;;;;;;6309638;22;20152;-87
2023/12/17 08:49:18;;;;;;;12.70;10.02;;;8.80;99.90;;;;;;6311196;22;20227;-89
2023/12/17 08:51:44;;;;;;;12.02;10.07;;;8.80;99.90;;;;;;6309758;22;20152;-91
2023/12/17 08:54:10;;;;;;;13.00;10.35;;;8.80;99.90;;;;;;6309653;22;20465;-87
2023/12/17 08:56:37;;;;;;;12.00;9.75;;;8.80;99.90;;;;;;6309578;22;20190;-89
2023/12/17 08:59:03;;;;;;;11.43;10.00;;;8.80;99.90;;;;;;6308903;22;20164;-87
2023/12/17 09:01:28;;;;;;;12.27;10.15;;;8.80;99.90;;;;;;6310221;22;20261;-87
2023/12/17 09:03:54;;;;;;;13.63;10.77;;;8.90;99.90;;;;;;6308849;22;20184;-89
2023/12/17 09:06:22;;;;;;;12.40;9.88;;;8.80;99.90;;;;;;6308995;22;20160;-89
2023/12/17 09:08:48;;;;;;;13.43;10.15;;;8.90;99.90;;;;;;6309254;22;20151;-87
2023/12/17 09:11:14;;;;;;;12.30;9.35;;;8.90;99.90;;;;;;6309133;22;20238;-89
2023/12/17 09:13:45;;;;;;;14.25;10.00;;;8.90;99.90;;;;;;6310628;22;20176;-89
2023/12/17 09:16:11;;;;;;;11.45;9.60;;;8.90;99.90;;;;;;6310500;22;20598;-86
2023/12/17 09:18:38;;;;;;;16.40;10.75;;;8.90;99.90;;;;;;6308822;22;20156;-86
2023/12/17 09:21:04;;;;;;;12.93;9.40;;;8.90;99.90;;;;;;6309141;22;20571;-87
2023/12/17 09:23:30;;;;;;;12.73;10.02;;;8.90;99.90;;;;;;6308250;22;20209;-87
2023/12/17 09:26:00;;;;;;;12.18;9.82;;;8.90;99.90;;;;;;6299763;22;20158;-85
2023/12/17 09:28:28;;;;;;;13.50;9.80;;;8.90;99.90;;;;;;6306514;22;20203;-86
2023/12/17 09:30:54;;;;;;;13.35;10.02;;;8.90;99.90;;;;;;6307707;22;20172;-86
2023/12/17 09:33:22;;;;;;;13.52;10.38;;;8.90;99.90;;;;;;6307414;22;20163;-86
2023/12/17 09:35:48;;;;;;;13.00;10.27;;;9.00;99.90;;;;;;6309266;22;20229;-87
2023/12/17 09:38:15;;;;;;;13.23;10.50;;;9.00;99.90;;;;;;6306832;22;20151;-86
2023/12/17 09:40:43;;;;;;;10.88;9.45;;;9.10;99.90;;;;;;6305039;22;20564;-85
2023/12/17 09:43:10;;;;;;;14.02;10.60;;;9.10;99.90;;;;;;6305962;22;20186;-86
2023/12/17 09:45:37;;;;;;;11.75;9.43;;;9.10;99.90;;;;;;6304185;22;20156;-85
2023/12/17 09:48:03;;;;;;;10.93;9.65;;;9.10;99.90;;;;;;6304788;22;20178;-86
2023/12/17 09:50:29;;;;;;;11.90;9.50;;;9.20;99.90;;;;;;6304272;22;20155;-85
2023/12/17 09:52:55;;;;;;;11.55;9.35;;;9.20;99.90;;;;;;6302864;22;20191;-85
2023/12/17 09:55:21;;;;;;;12.75;9.95;;;9.20;99.90;;;;;;6304303;22;20192;-85
2023/12/17 09:57:47;;;;;;;12.52;10.02;;;9.20;99.90;;;;;;6306519;22;20155;-86
2023/12/17 10:00:14;;;;;;;12.85;9.90;;;9.20;99.90;;;;;;6308384;22;20256;-89
2023/12/17 10:02:40;;;;;;;12.30;9.15;;;9.30;99.90;;;;;;6307375;22;20151;-85
2023/12/17 10:05:07;;;;;;;12.20;9.85;;;9.30;99.90;;;;;;6309057;22;20156;-87
2023/12/17 10:07:34;;;;;;;12.93;9.32;;;9.40;99.90;;;;;;6308482;22;20152;-87
2023/12/17 10:10:00;;;;;;;12.70;10.02;;;9.40;99.90;;;;;;6307776;22;20155;-87
2023/12/17 10:12:27;;;;;;;11.88;9.45;;;9.30;99.90;;;;;;6307658;22;20198;-87
2023/12/17 10:14:55;;;;;;;12.55;10.25;;;9.30;99.90;;;;;;6307672;22;20200;-87
2023/12/17 10:17:21;;;;;;;14.18;9.68;;;9.30;99.90;;;;;;6308085;22;20226;-86
2023/12/17 10:19:53;;;;;;;15.18;9.98;;;9.30;99.90;;;;;;6308622;22;20566;-85
2023/12/17 10:22:20;;;;;;;12.10;9.65;;;9.20;99.90;;;;;;6308275;22;20152;-86
2023/12/17 10:24:46;;;;;;;13.43;9.85;;;9.20;99.90;;;;;;6308008;22;20251;-86
2023/12/17 10:27:22;;;;;;;11.38;9.15;;;9.30;99.90;;;;;;6306836;22;20222;-85
2023/12/17 10:29:54;;;;;;;11.75;9.18;;;9.30;99.90;;;;;;6307677;22;20519;-87
2023/12/17 10:32:24;;;;;;;11.55;9.18;;;9.40;99.90;;;;;;6307890;22;20148;-85
2023/12/17 10:34:52;;;;;;;11.80;9.00;;;9.40;99.90;;;;;;6308255;22;20191;-86
2023/12/17 10:37:21;;;;;;;10.88;8.57;;;9.40;99.90;;;;;;6309270;22;20151;-87
2023/12/17 10:39:54;;;;;;;11.45;9.18;;;9.50;99.90;;;;;;6308184;22;20148;-85
2023/12/17 10:42:21;;;;;;;9.95;8.20;;;9.60;99.90;;;;;;6305963;22;20464;-85
2023/12/17 10:44:49;;;;;;;13.45;8.48;;;9.70;99.90;;;;;;6308418;22;20152;-84
2023/12/17 10:47:22;;;;;;;9.50;7.60;;;9.70;99.90;;;;;;6307305;22;20466;-84
2023/12/17 10:49:48;;;;;;;9.90;7.47;;;9.70;99.90;;;;;;6307317;22;20156;-86
2023/12/17 10:52:15;;;;;;;9.33;7.53;;;9.80;99.90;;;;;;6307362;22;20226;-85
2023/12/17 10:54:41;;;;;;;9.43;7.72;;;9.80;99.90;;;;;;6307335;22;20196;-85
2023/12/17 10:57:19;;;;;;;9.23;7.38;;;9.80;99.90;;;;;;6307184;22;20152;-86
2023/12/17 10:59:48;;;;;;;12.68;7.70;;;9.70;99.90;;;;;;6307725;22;20209;-92
2023/12/17 11:02:19;;;;;;;10.57;7.35;;;9.70;99.90;;;;;;6307946;22;20230;-86
2023/12/17 11:04:48;;;;;;;9.00;7.30;;;9.80;99.90;;;;;;6307673;22;20235;-86
2023/12/17 11:07:21;;;;;;;8.25;6.68;;;9.80;99.90;;;;;;6307815;22;20201;-87
2023/12/17 11:09:46;;;;;;;8.38;6.40;;;9.80;99.90;;;;;;6308150;22;20156;-87
2023/12/17 11:12:13;;;;;;;7.40;6.25;;;9.90;99.90;;;;;;6308262;22;20229;-84
2023/12/17 11:14:44;;;;;;;6.45;5.53;;;9.90;99.90;;;;;;6307496;22;20193;-88
2023/12/17 11:17:12;;;;;;;6.35;5.38;;;10.00;99.90;;;;;;6307405;22;20661;-86
2023/12/17 11:19:53;;;;;;;5.85;4.90;;;10.00;99.90;;;;;;6308195;22;20158;-87
2023/12/17 11:22:23;;;;;;;5.68;4.63;;;10.10;99.90;;;;;;6307347;22;20155;-86
2023/12/17 11:24:49;;;;;;;5.13;4.38;;;10.00;99.90;;;;;;6307657;22;20426;-86
2023/12/17 11:27:22;;;;;;;4.20;3.80;;;10.00;99.90;;;;;;6307216;22;20225;-86
2023/12/17 11:29:49;;;;;;;4.10;3.67;;;10.00;99.90;;;;;;6307626;22;20164;-86
2023/12/17 11:32:17;;;;;;;3.88;3.40;;;10.00;99.90;;;;;;6307881;22;20289;-86
2023/12/17 11:34:48;;;;;;;4.03;3.20;;;9.90;99.90;;;;;;6307796;22;20196;-87
2023/12/17 11:37:18;;;;;;;5.18;3.55;;;9.80;99.90;;;;;;6307631;22;20147;-85
2023/12/17 11:39:46;;;;;;;6.53;3.65;;;9.80;99.90;;;;;;6307323;22;20628;-86
2023/12/17 11:42:13;;;;;;;3.92;3.42;;;9.70;99.90;;;;;;6307688;22;20151;-83
2023/12/17 11:44:52;;;;;;;4.43;3.42;;;9.70;99.90;;;;;;6307041;22;20182;-86
2023/12/17 11:47:27;;;;;;;4.53;3.13;;;9.70;99.90;;;;;;6307494;22;20186;-85
2023/12/17 11:50:00;;;;;;;5.47;2.97;;;9.70;99.90;;;;;;6307953;22;20159;-90
2023/12/17 11:52:26;;;;;;;5.28;3.08;;;9.70;99.90;;;;;;6307578;22;20156;-84
2023/12/17 11:55:00;;;;;;;2.90;2.55;;;9.70;99.90;;;;;;6307491;22;20599;-87
2023/12/17 11:57:30;;;;;;;3.03;2.60;;;9.70;99.90;;;;;;6305626;22;20582;-84
2023/12/17 11:59:56;;;;;;;3.03;2.72;;;9.80;99.90;;;;;;6304889;22;20187;-83
2023/12/17 12:02:23;;;;;;;3.42;2.67;;;9.80;99.90;;;;;;6306669;22;20151;-86
2023/12/17 12:04:51;;;;;;;3.20;2.70;;;9.80;99.90;;;;;;6306536;22;20156;-86
2023/12/17 12:07:20;;;;;;;2.80;2.55;;;9.80;99.90;;;;;;6306545;22;20152;-85
2023/12/17 12:09:48;;;;;;;3.28;2.67;;;9.70;99.90;;;;;;6307188;22;20237;-85
2023/12/17 12:12:26;;;;;;;2.80;2.50;;;9.70;99.90;;;;;;6307679;22;20156;-86
2023/12/17 12:14:53;;;;;;;2.30;2.10;;;9.70;99.90;;;;;;6307367;22;20187;-86
2023/12/17 12:17:42;;;;;;;5.03;2.60;;;9.60;99.90;;;;;;6307496;22;20488;-85
2023/12/17 12:20:14;;;;;;;3.13;2.42;;;9.60;99.90;;;;;;6307508;22;20152;-86
2023/12/17 12:22:43;;;;;;;4.63;2.25;;;9.60;99.90;;;;;;6307235;22;20155;-84
2023/12/17 12:25:10;;;;;;;2.95;2.38;;;9.60;99.90;;;;;;6307416;22;20167;-88
2023/12/17 12:27:37;;;;;;;2.80;2.42;;;9.60;99.90;;;;;;6306651;22;20192;-85
2023/12/17 12:30:03;;;;;;;2.83;2.42;;;9.60;99.90;;;;;;6307106;22;20164;-85
2023/12/17 12:32:31;;;;;;;2.80;2.47;;;9.60;99.90;;;;;;6307462;22;20639;-86
2023/12/17 12:34:58;;;;;;;3.22;2.60;;;9.60;99.90;;;;;;6309074;22;20188;-85
2023/12/17 12:37:38;;;;;;;3.75;2.72;;;9.70;99.90;;;;;;6301751;22;20160;-84
2023/12/17 12:40:06;;;;;;;3.70;2.47;;;9.70;99.90;;;;;;6308348;22;20156;-85
2023/12/17 12:42:33;;;;;;;9.82;3.30;;;9.70;99.90;;;;;;6307598;22;20160;-83
2023/12/17 12:45:00;;;;;;;2.90;2.55;;;9.70;99.90;;;;;;6307825;22;20247;-85
2023/12/17 12:47:26;;;;;;;3.40;2.63;;;9.60;99.90;;;;;;6308162;22;20235;-84